createdAt,value
2019-04-26T00:00:07.531Z,3.57
2019-04-26T00:02:51.951Z,2.97
2019-04-26T00:05:20.318Z,8.83
2019-04-26T00:07:49.325Z,4.83
2019-04-26T00:10:27.091Z,4.50
2019-04-26T00:13:06.047Z,3.50
2019-04-26T00:15:48.655Z,2.60
2019-04-26T00:18:17.464Z,4.90
2019-04-26T00:20:46.327Z,6.13
2019-04-26T00:23:16.104Z,8.07
2019-04-26T00:25:44.578Z,8.53
2019-04-26T00:28:13.374Z,8.13
2019-04-26T00:30:42.475Z,4.00
2019-04-26T00:33:12.553Z,3.80
2019-04-26T00:35:47.770Z,5.10
2019-04-26T00:38:13.248Z,9.50
2019-04-26T00:40:42.671Z,4.83
2019-04-26T00:43:12.770Z,8.20
2019-04-26T00:45:41.706Z,3.50
2019-04-26T00:48:10.129Z,3.27
2019-04-26T00:50:38.943Z,4.43
2019-04-26T00:53:07.656Z,4.93
2019-04-26T00:55:36.394Z,3.43
2019-04-26T00:58:05.439Z,10.83
2019-04-26T01:00:34.254Z,4.70
2019-04-26T01:03:02.919Z,3.50
2019-04-26T01:05:33.425Z,4.03
2019-04-26T01:08:01.692Z,4.70
2019-04-26T01:10:30.406Z,8.80
2019-04-26T01:12:59.090Z,7.90
2019-04-26T01:15:27.809Z,5.80
2019-04-26T01:17:56.487Z,2.10
2019-04-26T01:20:25.313Z,1.77
2019-04-26T01:22:54.373Z,5.60
2019-04-26T01:25:42.448Z,9.73
2019-04-26T01:28:14.205Z,9.30
2019-04-26T01:30:43.016Z,2.97
2019-04-26T01:33:11.322Z,6.10
2019-04-26T01:35:40.192Z,2.33
2019-04-26T01:38:09.047Z,2.87
2019-04-26T01:40:38.193Z,3.60
2019-04-26T01:43:14.699Z,2.70
2019-04-26T01:45:47.784Z,3.47
2019-04-26T01:48:40.668Z,5.63
2019-04-26T01:51:08.983Z,2.20
2019-04-26T01:53:37.680Z,3.77
2019-04-26T01:56:06.510Z,5.30
2019-04-26T01:58:35.218Z,3.67
2019-04-26T02:01:26.081Z,4.23
2019-04-26T02:03:54.849Z,4.53
2019-04-26T02:06:30.514Z,7.63
2019-04-26T02:08:55.174Z,2.60
2019-04-26T02:11:24.991Z,3.30
2019-04-26T02:13:53.843Z,2.57
2019-04-26T02:16:23.683Z,5.47
2019-04-26T02:18:52.525Z,4.17
2019-04-26T02:21:31.981Z,4.30
2019-04-26T02:24:19.870Z,5.90
2019-04-26T02:26:48.706Z,8.67
2019-04-26T02:29:19.030Z,6.53
2019-04-26T02:31:51.174Z,2.40
2019-04-26T02:34:19.919Z,1.93
2019-04-26T02:36:58.114Z,2.63
2019-04-26T02:39:19.493Z,4.97
2019-04-26T02:41:50.169Z,4.00
2019-04-26T02:44:21.993Z,5.30
2019-04-26T02:47:19.187Z,3.27
2019-04-26T02:49:48.769Z,3.27
2019-04-26T02:52:45.101Z,3.20
2019-04-26T02:55:16.553Z,6.23
2019-04-26T02:57:48.802Z,4.97
2019-04-26T03:00:18.689Z,6.47
2019-04-26T03:03:07.595Z,1.77
2019-04-26T03:05:37.566Z,8.80
2019-04-26T03:08:18.314Z,5.23
2019-04-26T03:10:51.921Z,2.47
2019-04-26T03:13:40.103Z,3.00
2019-04-26T03:16:21.802Z,2.43
2019-04-26T03:19:04.884Z,2.43
2019-04-26T03:21:46.205Z,3.03
2019-04-26T03:24:25.713Z,3.47
2019-04-26T03:27:20.067Z,2.80
2019-04-26T03:29:52.739Z,4.70
2019-04-26T03:32:54.015Z,5.47
2019-04-26T03:35:36.978Z,6.87
2019-04-26T03:38:23.214Z,1.57
2019-04-26T03:41:17.638Z,3.83
2019-04-26T03:43:49.385Z,9.43
2019-04-26T03:46:50.390Z,2.87
2019-04-26T03:50:15.309Z,14.90
2019-04-26T03:52:54.001Z,10.00
2019-04-26T03:56:12.993Z,6.20
2019-04-26T03:59:17.897Z,4.40
2019-04-26T04:01:57.328Z,7.10
2019-04-26T04:04:37.017Z,5.00
2019-04-26T04:07:05.376Z,8.43
2019-04-26T04:09:34.106Z,5.97
2019-04-26T04:12:11.675Z,3.57
2019-04-26T04:14:55.515Z,15.30
2019-04-26T04:17:48.273Z,5.97
2019-04-26T04:21:06.678Z,4.60
2019-04-26T04:24:06.808Z,3.83
2019-04-26T04:27:05.179Z,6.17
2019-04-26T04:29:55.298Z,13.57
2019-04-26T04:32:31.230Z,10.07
2019-04-26T04:35:01.409Z,3.07
2019-04-26T04:37:33.307Z,9.27
2019-04-26T04:40:13.985Z,8.13
2019-04-26T04:42:54.529Z,7.90
2019-04-26T04:45:59.260Z,7.37
2019-04-26T04:48:49.237Z,3.77
2019-04-26T04:51:31.833Z,12.30
2019-04-26T04:54:11.395Z,7.60
2019-04-26T04:57:07.399Z,8.23
2019-04-26T05:00:28.013Z,4.03
2019-04-26T05:03:08.135Z,13.50
2019-04-26T05:06:07.693Z,4.40
2019-04-26T05:09:00.247Z,4.30
2019-04-26T05:12:22.231Z,1.93
2019-04-26T05:15:21.123Z,4.60
2019-04-26T05:17:56.184Z,5.20
2019-04-26T05:20:58.851Z,13.33
2019-04-26T05:24:24.399Z,5.37
2019-04-26T05:27:43.494Z,5.33
2019-04-26T05:31:16.383Z,4.53
2019-04-26T05:34:21.555Z,15.07
2019-04-26T05:36:55.009Z,6.30
2019-04-26T05:39:27.567Z,10.33
2019-04-26T05:42:35.568Z,6.33
2019-04-26T05:45:56.016Z,6.53
2019-04-26T05:48:53.579Z,3.43
2019-04-26T05:52:04.619Z,5.37
2019-04-26T05:55:08.879Z,3.30
2019-04-26T05:57:54.367Z,12.73
2019-04-26T06:00:50.432Z,4.33
2019-04-26T06:03:47.590Z,5.73
2019-04-26T06:06:25.993Z,4.13
2019-04-26T06:09:46.497Z,4.87
2019-04-26T06:12:27.255Z,4.90
2019-04-26T06:15:28.929Z,3.00
2019-04-26T06:18:18.762Z,3.70
2019-04-26T06:20:52.951Z,13.83
2019-04-26T06:24:25.333Z,7.83
2019-04-26T06:27:14.248Z,26.23
2019-04-26T06:30:14.022Z,5.20
2019-04-26T06:33:03.180Z,3.53
2019-04-26T06:35:29.723Z,4.07
2019-04-26T06:38:21.118Z,5.20
2019-04-26T06:41:21.875Z,8.30
2019-04-26T06:43:55.553Z,7.30
2019-04-26T06:47:09.703Z,2.33
2019-04-26T06:50:11.386Z,11.50
2019-04-26T06:52:49.769Z,3.10
2019-04-26T06:55:25.275Z,7.50
2019-04-26T06:58:02.877Z,8.63
2019-04-26T07:00:48.868Z,8.00
2019-04-26T07:03:35.851Z,4.60
2019-04-26T07:06:06.586Z,9.90
2019-04-26T07:08:38.618Z,5.27
2019-04-26T07:11:51.839Z,4.87
2019-04-26T07:14:39.369Z,4.60
2019-04-26T07:17:14.912Z,11.37
2019-04-26T07:20:31.511Z,6.27
2019-04-26T07:23:36.142Z,12.10
2019-04-26T07:26:22.563Z,14.10
2019-04-26T07:29:29.746Z,4.43
2019-04-26T07:32:11.569Z,1.90
2019-04-26T07:34:52.237Z,2.50
2019-04-26T07:38:04.750Z,12.90
2019-04-26T07:41:22.497Z,2.30
2019-04-26T07:44:09.723Z,4.20
2019-04-26T07:46:59.063Z,4.90
2019-04-26T07:50:04.055Z,4.00
2019-04-26T07:53:14.867Z,3.67
2019-04-26T07:55:51.405Z,4.20
2019-04-26T07:58:51.939Z,8.10
2019-04-26T08:01:41.887Z,3.93
2019-04-26T08:04:17.191Z,5.73
2019-04-26T08:06:52.608Z,14.53
2019-04-26T08:09:26.833Z,14.03
2019-04-26T08:11:55.647Z,5.57
2019-04-26T08:14:34.890Z,9.13
2019-04-26T08:17:22.811Z,6.37
2019-04-26T08:20:21.885Z,9.47
2019-04-26T08:22:54.567Z,6.50
2019-04-26T08:25:23.331Z,13.33
2019-04-26T08:27:52.148Z,7.30
2019-04-26T08:30:22.730Z,7.57
2019-04-26T08:32:53.604Z,6.83
2019-04-26T08:35:29.634Z,6.23
2019-04-26T08:38:00.031Z,9.43
2019-04-26T08:40:31.191Z,7.73
2019-04-26T08:43:18.128Z,6.37
2019-04-26T08:46:10.075Z,10.80
2019-04-26T08:49:06.138Z,7.13
2019-04-26T08:51:33.030Z,6.43
2019-04-26T08:54:01.987Z,7.50
2019-04-26T08:56:33.075Z,16.47
2019-04-26T08:59:03.732Z,6.53
2019-04-26T09:01:51.491Z,3.47
2019-04-26T09:04:25.961Z,2.90
2019-04-26T09:07:01.975Z,3.93
2019-04-26T09:09:32.377Z,4.97
2019-04-26T09:12:03.868Z,2.90
2019-04-26T09:14:32.297Z,4.10
2019-04-26T09:17:01.321Z,3.30
2019-04-26T09:19:30.479Z,3.90
2019-04-26T09:22:12.787Z,3.90
2019-04-26T09:25:05.147Z,5.90
2019-04-26T09:27:50.449Z,1.20
2019-04-26T09:30:34.266Z,1.47
2019-04-26T09:33:15.126Z,3.03
2019-04-26T09:35:43.887Z,1.47
2019-04-26T09:38:12.579Z,1.10
2019-04-26T09:40:41.996Z,1.00
2019-04-26T09:43:25.274Z,1.20
2019-04-26T09:46:25.027Z,1.03
2019-04-26T09:49:09.458Z,0.90
2019-04-26T09:51:39.151Z,9.00
2019-04-26T09:54:09.134Z,1.03
2019-04-26T09:56:37.830Z,3.87
2019-04-26T09:59:06.789Z,0.60
2019-04-26T10:01:35.674Z,3.53
2019-04-26T10:04:04.375Z,2.53
2019-04-26T10:06:33.063Z,2.70
2019-04-26T10:09:01.810Z,0.70
2019-04-26T10:11:39.611Z,2.10
2019-04-26T10:14:10.398Z,0.93
2019-04-26T10:16:56.974Z,0.93
2019-04-26T10:19:43.002Z,1.87
2019-04-26T10:22:11.759Z,0.60
2019-04-26T10:24:40.487Z,0.67
2019-04-26T10:27:09.282Z,0.80
2019-04-26T10:29:38.138Z,1.07
2019-04-26T10:32:06.968Z,0.90
2019-04-26T10:34:35.646Z,2.03
2019-04-26T10:37:06.181Z,1.43
2019-04-26T10:39:36.806Z,1.03
2019-04-26T10:42:04.378Z,0.70
2019-04-26T10:44:35.734Z,1.10
2019-04-26T10:47:05.738Z,2.67
2019-04-26T10:49:38.415Z,0.60
2019-04-26T10:52:11.902Z,1.27
2019-04-26T10:54:41.092Z,0.67
2019-04-26T10:57:30.425Z,0.60
2019-04-26T11:00:02.013Z,1.00
2019-04-26T11:02:30.311Z,0.60
2019-04-26T11:04:59.021Z,4.10
2019-04-26T11:07:27.726Z,0.60
2019-04-26T11:09:56.414Z,1.33
2019-04-26T11:12:25.111Z,0.70
2019-04-26T11:14:56.939Z,0.80
2019-04-26T11:17:24.297Z,0.67
2019-04-26T11:19:52.995Z,2.93
2019-04-26T11:22:28.984Z,0.70
2019-04-26T11:24:53.859Z,0.53
2019-04-26T11:27:22.126Z,3.33
2019-04-26T11:29:53.730Z,1.00
2019-04-26T11:32:21.294Z,5.23
2019-04-26T11:34:50.001Z,1.77
2019-04-26T11:37:19.424Z,0.70
2019-04-26T11:39:48.484Z,4.70
2019-04-26T11:42:17.241Z,7.23
2019-04-26T11:44:45.984Z,9.93
2019-04-26T11:47:14.382Z,4.40
2019-04-26T11:49:43.169Z,4.50
2019-04-26T11:52:11.881Z,4.17
2019-04-26T11:54:40.581Z,0.80
2019-04-26T11:57:12.104Z,0.70
2019-04-26T11:59:39.722Z,0.67
2019-04-26T12:02:08.525Z,4.00
2019-04-26T12:04:53.859Z,0.50
2019-04-26T12:07:28.123Z,0.50
2019-04-26T12:09:58.577Z,0.80
2019-04-26T12:12:27.542Z,3.53
2019-04-26T12:14:56.232Z,3.70
2019-04-26T12:17:27.026Z,3.40
2019-04-26T12:19:55.549Z,1.40
2019-04-26T12:22:24.226Z,20.27
2019-04-26T12:24:53.043Z,0.70
2019-04-26T12:27:21.803Z,0.70
2019-04-26T12:29:50.237Z,4.43
2019-04-26T12:32:18.936Z,0.80
2019-04-26T12:34:47.628Z,1.00
2019-04-26T12:37:19.859Z,0.50
2019-04-26T12:39:46.996Z,0.50
2019-04-26T12:42:16.291Z,3.60
2019-04-26T12:44:52.106Z,1.37
2019-04-26T12:47:24.611Z,2.50
2019-04-26T12:49:54.562Z,0.80
2019-04-26T12:52:22.963Z,0.97
2019-04-26T12:54:51.660Z,0.80
2019-04-26T12:57:20.606Z,1.07
2019-04-26T12:59:49.314Z,0.70
2019-04-26T13:02:20.932Z,0.70
2019-04-26T13:04:48.534Z,1.97
2019-04-26T13:07:24.001Z,0.70
2019-04-26T13:10:11.058Z,3.60
2019-04-26T13:12:57.731Z,1.90
2019-04-26T13:15:56.601Z,1.30
2019-04-26T13:18:25.323Z,0.90
2019-04-26T13:20:54.023Z,4.13
2019-04-26T13:23:25.442Z,1.00
2019-04-26T13:25:55.501Z,1.30
2019-04-26T13:28:23.627Z,1.30
2019-04-26T13:30:52.508Z,1.00
2019-04-26T13:33:23.198Z,8.23
2019-04-26T13:36:02.542Z,1.23
2019-04-26T13:38:21.889Z,1.20
2019-04-26T13:40:50.598Z,0.90
2019-04-26T13:43:22.697Z,0.70
2019-04-26T13:46:07.210Z,0.97
2019-04-26T13:48:59.104Z,0.70
2019-04-26T13:51:28.838Z,0.90
2019-04-26T13:53:57.531Z,0.77
2019-04-26T13:56:26.283Z,0.60
2019-04-26T13:58:58.178Z,1.23
2019-04-26T14:01:25.019Z,0.77
2019-04-26T14:03:54.041Z,0.97
2019-04-26T14:06:22.729Z,1.37
2019-04-26T14:08:53.983Z,1.77
2019-04-26T14:11:28.167Z,25.87
2019-04-26T14:13:55.387Z,25.30
2019-04-26T14:16:22.898Z,89.67
2019-04-26T14:18:51.736Z,70.77
2019-04-26T14:21:20.101Z,104.77
2019-04-26T14:24:13.765Z,93.47
2019-04-26T14:26:45.815Z,84.73
2019-04-26T14:29:14.528Z,39.00
2019-04-26T14:31:43.292Z,7.07
2019-04-26T14:34:12.168Z,2.97
2019-04-26T14:36:43.626Z,1.23
2019-04-26T14:39:14.798Z,2.60
2019-04-26T14:41:41.554Z,2.37
2019-04-26T14:44:15.738Z,45.80
2019-04-26T14:46:48.504Z,3.03
2019-04-26T14:49:11.308Z,1.27
2019-04-26T14:51:40.707Z,1.30
2019-04-26T14:54:11.506Z,4.00
2019-04-26T14:56:51.724Z,2.13
2019-04-26T14:59:12.174Z,1.03
2019-04-26T15:01:58.043Z,0.60
2019-04-26T15:04:53.356Z,0.70
2019-04-26T15:07:22.235Z,0.70
2019-04-26T15:09:50.709Z,4.93
2019-04-26T15:12:19.830Z,0.70
2019-04-26T15:14:49.388Z,2.20
2019-04-26T15:17:20.132Z,3.30
2019-04-26T15:19:49.645Z,3.50
2019-04-26T15:22:18.371Z,1.77
2019-04-26T15:24:47.073Z,1.17
2019-04-26T15:27:16.010Z,1.13
2019-04-26T15:29:44.330Z,3.90
2019-04-26T15:32:13.178Z,1.27
2019-04-26T15:34:42.199Z,1.30
2019-04-26T15:37:10.926Z,1.10
2019-04-26T15:39:58.368Z,1.17
2019-04-26T15:42:36.163Z,2.13
2019-04-26T15:45:14.997Z,2.63
2019-04-26T15:47:57.673Z,1.00
2019-04-26T15:50:31.349Z,4.37
2019-04-26T15:53:00.154Z,2.33
2019-04-26T15:55:33.843Z,0.70
2019-04-26T15:58:02.627Z,6.10
2019-04-26T16:00:32.721Z,0.83
2019-04-26T16:03:03.842Z,3.00
2019-04-26T16:05:32.407Z,1.43
2019-04-26T16:08:04.340Z,3.07
2019-04-26T16:10:37.047Z,1.00
2019-04-26T16:13:16.244Z,1.10
2019-04-26T16:15:32.971Z,1.07
2019-04-26T16:18:03.935Z,1.20
2019-04-26T16:20:38.098Z,0.77
2019-04-26T16:23:06.160Z,4.07
2019-04-26T16:25:34.436Z,1.70
2019-04-26T16:28:22.817Z,2.20
2019-04-26T16:31:10.986Z,1.23
2019-04-26T16:33:40.161Z,1.43
2019-04-26T16:36:08.964Z,0.73
2019-04-26T16:38:37.953Z,0.90
2019-04-26T16:41:07.189Z,0.90
2019-04-26T16:43:40.356Z,2.00
2019-04-26T16:46:06.452Z,0.70
2019-04-26T16:48:35.382Z,1.57
2019-04-26T16:51:08.442Z,2.73
2019-04-26T16:53:45.846Z,3.20
2019-04-26T16:56:04.962Z,1.27
2019-04-26T16:58:38.155Z,0.80
2019-04-26T17:01:04.669Z,0.60
2019-04-26T17:03:38.299Z,2.77
2019-04-26T17:06:10.829Z,3.80
2019-04-26T17:08:43.319Z,0.97
2019-04-26T17:11:06.302Z,1.83
2019-04-26T17:13:36.233Z,0.90
2019-04-26T17:16:05.410Z,0.80
2019-04-26T17:18:34.138Z,0.97
2019-04-26T17:21:02.703Z,2.30
2019-04-26T17:23:44.258Z,1.97
2019-04-26T17:26:23.814Z,1.47
2019-04-26T17:28:55.342Z,1.20
2019-04-26T17:31:23.068Z,1.40
2019-04-26T17:33:51.786Z,0.77
2019-04-26T17:36:20.475Z,0.67
2019-04-26T17:38:50.547Z,2.13
2019-04-26T17:41:19.447Z,1.70
2019-04-26T17:43:52.018Z,2.50
2019-04-26T17:46:19.441Z,6.67
2019-04-26T17:48:50.637Z,5.77
2019-04-26T17:51:22.972Z,4.00
2019-04-26T17:53:58.825Z,3.80
2019-04-26T17:56:21.535Z,1.93
2019-04-26T17:58:54.310Z,1.00
2019-04-26T18:01:41.152Z,0.70
2019-04-26T18:03:55.599Z,1.50
2019-04-26T18:06:29.620Z,1.70
2019-04-26T18:08:54.730Z,10.40
2019-04-26T18:11:24.981Z,6.30
2019-04-26T18:13:52.998Z,4.70
2019-04-26T18:16:25.068Z,4.53
2019-04-26T18:19:05.311Z,3.53
2019-04-26T18:22:00.070Z,3.00
2019-04-26T18:24:32.339Z,2.93
2019-04-26T18:27:00.586Z,6.73
2019-04-26T18:29:30.419Z,3.53
2019-04-26T18:32:03.046Z,5.00
2019-04-26T18:34:30.550Z,5.40
2019-04-26T18:37:01.973Z,3.97
2019-04-26T18:39:30.473Z,2.90
2019-04-26T18:42:02.957Z,5.87
2019-04-26T18:44:37.856Z,8.30
2019-04-26T18:47:05.345Z,11.40
2019-04-26T18:49:34.061Z,13.77
2019-04-26T18:52:03.777Z,17.23
2019-04-26T18:54:38.269Z,11.03
2019-04-26T18:57:09.490Z,13.90
2019-04-26T18:59:37.410Z,11.13
2019-04-26T19:02:06.251Z,13.53
2019-04-26T19:04:34.955Z,7.00
2019-04-26T19:07:03.655Z,5.53
2019-04-26T19:09:45.263Z,5.40
2019-04-26T19:12:02.917Z,8.80
2019-04-26T19:15:02.490Z,4.63
2019-04-26T19:17:37.583Z,7.13
2019-04-26T19:20:25.455Z,6.63
2019-04-26T19:22:58.665Z,5.43
2019-04-26T19:25:29.797Z,2.97
2019-04-26T19:27:58.886Z,5.70
2019-04-26T19:30:28.367Z,2.50
2019-04-26T19:32:57.110Z,2.47
2019-04-26T19:35:25.826Z,3.37
2019-04-26T19:37:54.117Z,2.90
2019-04-26T19:40:22.983Z,7.67
2019-04-26T19:42:57.169Z,7.33
2019-04-26T19:45:45.924Z,13.33
2019-04-26T19:48:20.716Z,6.70
2019-04-26T19:50:53.351Z,7.00
2019-04-26T19:53:42.358Z,3.87
2019-04-26T19:56:36.511Z,4.70
2019-04-26T19:59:05.287Z,3.63
2019-04-26T20:01:33.693Z,5.03
2019-04-26T20:04:02.584Z,3.30
2019-04-26T20:06:32.246Z,3.43
2019-04-26T20:09:02.012Z,3.27
2019-04-26T20:11:31.677Z,3.57
2019-04-26T20:14:01.157Z,5.93
2019-04-26T20:16:32.447Z,4.10
2019-04-26T20:19:01.383Z,5.10
2019-04-26T20:21:32.616Z,3.10
2019-04-26T20:24:01.300Z,4.63
2019-04-26T20:26:31.505Z,2.57
2019-04-26T20:29:00.242Z,4.10
2019-04-26T20:31:54.089Z,3.90
2019-04-26T20:34:22.855Z,3.77
2019-04-26T20:36:52.165Z,3.07
2019-04-26T20:39:23.991Z,3.57
2019-04-26T20:42:01.274Z,3.40
2019-04-26T20:44:28.265Z,2.60
2019-04-26T20:46:53.585Z,2.77
2019-04-26T20:49:21.931Z,3.03
2019-04-26T20:51:51.904Z,2.10
2019-04-26T20:54:22.365Z,4.40
2019-04-26T20:56:55.400Z,5.90
2019-04-26T20:59:23.645Z,10.93
2019-04-26T21:02:03.309Z,9.40
2019-04-26T21:04:35.083Z,8.20
2019-04-26T21:06:53.697Z,5.33
2019-04-26T21:09:22.606Z,6.07
2019-04-26T21:11:51.753Z,8.10
2019-04-26T21:14:21.365Z,5.87
2019-04-26T21:16:50.565Z,4.50
2019-04-26T21:19:20.271Z,4.97
2019-04-26T21:21:50.447Z,7.00
2019-04-26T21:24:23.391Z,6.70
2019-04-26T21:27:09.894Z,5.90
2019-04-26T21:30:03.350Z,7.17
2019-04-26T21:32:45.311Z,4.70
2019-04-26T21:35:15.863Z,6.00
2019-04-26T21:37:58.418Z,3.73
2019-04-26T21:40:30.290Z,4.60
2019-04-26T21:43:00.524Z,3.20
2019-04-26T21:45:31.057Z,3.17
2019-04-26T21:48:02.706Z,2.57
2019-04-26T21:50:35.761Z,2.43
2019-04-26T21:53:05.197Z,3.77
2019-04-26T21:55:35.712Z,2.27
2019-04-26T21:58:02.687Z,2.87
2019-04-26T22:00:49.783Z,2.70
2019-04-26T22:03:18.562Z,2.73
2019-04-26T22:05:49.846Z,3.57
2019-04-26T22:08:24.498Z,12.30
2019-04-26T22:10:49.812Z,2.70
2019-04-26T22:13:24.384Z,2.93
2019-04-26T22:15:59.063Z,3.00
2019-04-26T22:18:33.257Z,3.03
2019-04-26T22:21:10.355Z,4.10
2019-04-26T22:24:06.021Z,2.70
2019-04-26T22:26:37.976Z,13.10
2019-04-26T22:29:08.021Z,2.53
2019-04-26T22:31:37.914Z,2.60
2019-04-26T22:34:08.525Z,2.33
2019-04-26T22:36:36.592Z,7.77
2019-04-26T22:39:10.621Z,2.60
2019-04-26T22:41:39.365Z,4.07
2019-04-26T22:44:13.994Z,4.70
2019-04-26T22:46:58.756Z,2.70
2019-04-26T22:49:25.655Z,3.27
2019-04-26T22:51:54.343Z,5.27
2019-04-26T22:54:24.832Z,3.43
2019-04-26T22:56:53.921Z,3.27
2019-04-26T22:59:23.019Z,3.43
2019-04-26T23:01:53.594Z,3.70
2019-04-26T23:04:26.243Z,3.97
2019-04-26T23:06:56.154Z,3.33
2019-04-26T23:09:23.825Z,3.73
2019-04-26T23:11:59.041Z,4.30
2019-04-26T23:14:34.895Z,3.87
2019-04-26T23:17:35.155Z,4.10
2019-04-26T23:20:23.404Z,4.30
2019-04-26T23:22:53.694Z,5.07
2019-04-26T23:25:23.819Z,4.23
2019-04-26T23:27:56.715Z,4.13
2019-04-26T23:30:23.164Z,4.33
2019-04-26T23:32:52.267Z,6.53
2019-04-26T23:35:21.898Z,4.13
2019-04-26T23:37:50.598Z,4.90
2019-04-26T23:40:20.744Z,6.67
2019-04-26T23:42:51.606Z,5.40
2019-04-26T23:45:20.242Z,20.80
2019-04-26T23:47:48.952Z,8.10
2019-04-26T23:50:17.648Z,21.07
2019-04-26T23:52:49.186Z,23.33
2019-04-26T23:55:16.457Z,5.83
2019-04-26T23:57:45.168Z,5.90
